Terminal Aerodrome Forecast
Issued by NWS

Home | Current Version | Previous Version | Text Only | Print | Product List | Glossary On
Versions: 1 2 3 4 5 6 7 8 9 10 11 12 13 14 15
000
FTUS42 KGSP 300538
TAFAND
TAF
KAND 300538Z 3006/3106 06003KT P6SM FEW140
     FM301600 06007KT P6SM FEW140
     FM310300 07003KT P6SM FEW250=

USA.gov is the U.S. government's official web portal to all federal, state and local government web resources and services.